Terminal Aerodrome Forecast
Issued by NWS Charleston, WV

Current Version | Previous Version | Graphics & Text | Print | Product List | Glossary On
Versions: 1 2 3 4 5 6 7 8 9 10 11 12 13 14 15 16 17 18 19 20 21 22 23 24 25 26
000
FTUS41 KRLX 191100
TAFBKW
TAF
KBKW 191130Z 1912/2012 15008KT 5SM RA BR OVC015
     FM191400 16009KT 6SM SHRA BKN008 OVC015
     FM192000 16010G15KT 5SM RA BR OVC025
     FM192300 15007KT 6SM SHRA BR OVC020
     FM200300 15005KT P6SM BKN010
     FM200500 15004KT P6SM BKN015=

USA.gov is the U.S. government's official web portal to all federal, state and local government web resources and services.